Chignik Lagoon, AK

7:57 AM AKDT on July 24, 2014 (GMT -0800)
Sand Point (PASD) Elev 23 ft | 55.31 °N, 160.52 °W | Change Station

Current weather conditions updated 21 minutes ago

Overcast
Overcast
54 °F
Feels Like 54 °F
N
6
Wind Variable Wind from WNW

Today is forecast to be Cooler than yesterday. Morning light rain.

Today
High -- | Low -- °F
--% Chance of Precip.
Yesterday
High -- | Low -- °F
Precip. -- in
6:22 AM 10:56 PM
Waning Crescent, 5% visible
Pressure 30.01 in
Visibility 10.0 miles
Clouds Mostly Cloudy 1800 ft
Mostly Cloudy 2400 ft
Overcast 7000 ft
Dew Point 52 °F
Humidity 94%
Rainfall 0.00 in
Snow Depth Not available.
UV 0 out of 12
Pollen Not available.
Air Quality Not available.
Flu Activity Not available.
METAR PASD 241536Z 30005KT 10SM BKN018 BKN024 OVC070 12/11 A3001 RMK AO1 WEA: -RA (DA) PNO

More Conditions Fewer Conditions

Pressure 30.01 in
Visibility 10.0 miles
Clouds Mostly Cloudy 1800 ft
Mostly Cloudy 2400 ft
Overcast 7000 ft
Dew Point 52 °F
Humidity 94%
Rainfall 0.00 in
Snow Depth Not available.
UV 0 out of 12
Pollen Not available.
Air Quality Not available.
Flu Activity Not available.
METAR PASD 241536Z 30005KT 10SM BKN018 BKN024 OVC070 12/11 A3001 RMK AO1 WEA: -RA (DA) PNO

More Conditions Fewer Conditions

10-Day Weather Forecast

Almanac

Astronomy

Jul. 24, 2014 Rise Set
Actual Time 6:22 AM AKDT 10:56 PM AKDT
Civil Twilight 5:30 AM AKDT 11:48 PM AKDT
Nautical Twilight 4:03 AM AKDT 1:13 AM AKDT
Astronomical Twilight Sun does not rise Sun does not rise
Moon 4:46 AM AKDT 9:11 PM AKDT
Length of Visible Light 18h 18m
Length of Day
16h 34m
Tomorrow will be 3m 33s shorter.
Waning Crescent, 5% of the Moon is Illuminated
Today
Waning Crescent
Jul 26
New
Aug 3
First Quarter
Aug 10
Full
Aug 17
Last Quarter

Today's Extremes

State Highs State Lows

Community

WunderPhotos

Upload Photos

1,737,042 photos uploaded!

Nearby

Snow Depth

Station Depth Elevation
Port Graham 0 in 300 ft
Mcneil Canyon 1 in 1320 ft
MF Bradley River 27 in 2300 ft
Cooper Lake 13 in 1200 ft
Grouse Creek Divide 0 in 700 ft

Earthquake Activity

City Distance Mag. Time & Date
No recent earthquake activity has been reported nearby.
Minimum magnitude displayed is 2.5.

Coastal Water Temperatures

Place Temperature
No Stations Reporting

Nearby Weather Stations

There are no personal weather stations in this area.